Time;durP1;ratioP1;P1;durP2;ratioP2;P2;SDS_P1;SDS_P2;PMS_P1;PMS_P2;Temp;Humidity;BMP_temperature;BMP_pressure;BME280_temperature;BME280_humidity;BME280_pressure;Samples;Min_cycle;Max_cycle;Signal;HPM_P1;HPM_P2
2021/08/30 00:02:18;;;;;;;5.90;3.03;;;;;;;;;;4998731;28;20173;-48
2021/08/30 00:04:43;;;;;;;5.82;3.22;;;;;;;;;;5005761;28;20038;-51
2021/08/30 00:07:08;;;;;;;5.15;3.05;;;;;;;;;;5000545;28;20484;-49
2021/08/30 00:09:34;;;;;;;6.28;2.92;;;;;;;;;;5001034;28;20064;-50
2021/08/30 00:11:59;;;;;;;7.80;3.38;;;;;;;;;;5000634;28;20113;-48
2021/08/30 00:14:25;;;;;;;8.48;3.72;;;;;;;;;;5002974;28;20045;-49
2021/08/30 00:16:50;;;;;;;8.52;3.40;;;;;;;;;;5000879;28;20128;-48
2021/08/30 00:19:16;;;;;;;6.65;3.17;;;;;;;;;;5001650;28;20107;-47
2021/08/30 00:21:41;;;;;;;27.90;4.70;;;;;;;;;;5005094;28;20034;-48
2021/08/30 00:24:07;;;;;;;7.13;3.53;;;;;;;;;;4995640;28;20518;-48
2021/08/30 00:26:32;;;;;;;7.55;4.25;;;;;;;;;;5000553;28;20256;-47
2021/08/30 00:28:58;;;;;;;7.75;3.70;;;;;;;;;;5000454;28;20037;-49
2021/08/30 00:31:26;;;;;;;9.00;3.97;;;;;;;;;;5000828;28;20041;-49
2021/08/30 00:33:55;;;;;;;6.25;3.35;;;;;;;;;;4999330;28;20292;-50
2021/08/30 00:36:23;;;;;;;7.65;3.90;;;;;;;;;;5002456;28;20346;-49
2021/08/30 00:38:49;;;;;;;10.52;3.42;;;;;;;;;;5006137;28;20029;-47
2021/08/30 00:41:14;;;;;;;6.38;3.55;;;;;;;;;;5000819;28;20124;-48
2021/08/30 00:43:41;;;;;;;7.07;3.17;;;;;;;;;;5004360;28;20129;-47
2021/08/30 00:46:06;;;;;;;8.77;3.45;;;;;;;;;;5000102;28;20022;-47
2021/08/30 00:48:32;;;;;;;7.55;3.65;;;;;;;;;;5003380;28;20049;-47
2021/08/30 00:50:59;;;;;;;8.75;3.78;;;;;;;;;;4998482;28;20038;-47
2021/08/30 00:53:24;;;;;;;10.60;4.22;;;;;;;;;;4998182;28;20037;-47
2021/08/30 00:55:50;;;;;;;10.25;3.78;;;;;;;;;;5000246;28;20426;-49
2021/08/30 00:58:15;;;;;;;10.18;3.35;;;;;;;;;;5000046;28;20045;-49
2021/08/30 01:00:42;;;;;;;8.32;3.75;;;;;;;;;;4996081;28;20057;-47
2021/08/30 01:03:08;;;;;;;9.18;4.00;;;;;;;;;;5002675;28;20425;-49
2021/08/30 01:05:38;;;;;;;11.00;4.13;;;;;;;;;;5001967;28;20034;-48
2021/08/30 01:08:20;;;;;;;9.77;3.75;;;;;;;;;;4999982;28;20515;-48
2021/08/30 01:10:55;;;;;;;12.50;3.60;;;;;;;;;;4993696;28;20121;-48
2021/08/30 01:13:33;;;;;;;10.70;3.50;;;;;;;;;;4994222;28;20567;-49
2021/08/30 01:16:01;;;;;;;9.88;3.80;;;;;;;;;;4997084;28;20088;-48
2021/08/30 01:18:31;;;;;;;6.95;3.75;;;;;;;;;;5005472;28;20088;-48
2021/08/30 01:21:12;;;;;;;9.63;3.58;;;;;;;;;;5000747;28;20030;-48
2021/08/30 01:23:39;;;;;;;11.48;3.90;;;;;;;;;;5002824;28;20022;-47
2021/08/30 01:26:07;;;;;;;9.70;3.75;;;;;;;;;;5010184;28;20069;-48
2021/08/30 01:29:10;;;;;;;12.65;4.20;;;;;;;;;;5006541;28;20041;-49
2021/08/30 01:31:44;;;;;;;11.88;3.83;;;;;;;;;;5002748;28;20022;-49
2021/08/30 01:34:09;;;;;;;7.40;3.45;;;;;;;;;;5004368;28;20559;-48
2021/08/30 01:36:36;;;;;;;7.03;3.65;;;;;;;;;;5003612;28;20046;-48
2021/08/30 01:39:02;;;;;;;7.38;4.32;;;;;;;;;;5002914;28;20038;-48
2021/08/30 01:41:28;;;;;;;6.57;3.80;;;;;;;;;;5003457;28;20030;-47
2021/08/30 01:43:56;;;;;;;9.82;3.60;;;;;;;;;;5007294;28;20105;-47
2021/08/30 01:46:22;;;;;;;6.40;3.70;;;;;;;;;;5001275;28;20028;-48
2021/08/30 01:48:50;;;;;;;11.32;3.90;;;;;;;;;;5003457;28;20045;-47
2021/08/30 01:51:19;;;;;;;11.75;4.38;;;;;;;;;;5000660;28;20504;-48
2021/08/30 01:53:46;;;;;;;11.20;3.97;;;;;;;;;;4999326;28;20040;-47
2021/08/30 01:56:13;;;;;;;10.40;3.67;;;;;;;;;;5003070;28;20026;-47
2021/08/30 02:01:05;;;;;;;8.85;4.15;;;;;;;;;;4997969;28;20036;-47
2021/08/30 02:03:31;;;;;;;5.95;3.50;;;;;;;;;;5000894;28;20129;-47
2021/08/30 02:06:02;;;;;;;8.32;3.95;;;;;;;;;;5003514;28;20033;-48
2021/08/30 02:08:30;;;;;;;7.63;3.65;;;;;;;;;;5004779;28;20037;-48
2021/08/30 02:10:58;;;;;;;11.73;3.80;;;;;;;;;;4998666;28;20061;-48
2021/08/30 02:13:29;;;;;;;9.90;4.00;;;;;;;;;;4997634;28;20095;-47
2021/08/30 02:15:57;;;;;;;12.13;4.07;;;;;;;;;;4999532;28;20487;-47
2021/08/30 02:18:43;;;;;;;11.98;3.45;;;;;;;;;;5006323;28;20030;-47
2021/08/30 02:21:17;;;;;;;10.82;3.50;;;;;;;;;;5000806;28;20427;-47
2021/08/30 02:24:00;;;;;;;11.15;3.28;;;;;;;;;;5002795;28;20026;-48
2021/08/30 02:26:32;;;;;;;5.95;3.63;;;;;;;;;;5002592;28;20025;-48
2021/08/30 02:29:02;;;;;;;15.57;3.97;;;;;;;;;;5003749;28;20030;-47
2021/08/30 02:31:31;;;;;;;9.02;3.65;;;;;;;;;;5004417;28;20060;-47
2021/08/30 02:34:01;;;;;;;11.00;3.55;;;;;;;;;;4996848;28;20026;-47
2021/08/30 02:36:28;;;;;;;11.38;3.83;;;;;;;;;;5002034;28;20057;-47
2021/08/30 02:38:55;;;;;;;6.35;3.17;;;;;;;;;;5002965;28;20504;-47
2021/08/30 02:41:22;;;;;;;10.43;3.97;;;;;;;;;;5005966;28;20034;-48
2021/08/30 02:43:49;;;;;;;8.02;3.60;;;;;;;;;;5002561;28;20030;-50
2021/08/30 02:46:15;;;;;;;7.95;3.50;;;;;;;;;;5002767;28;20030;-49
2021/08/30 02:48:41;;;;;;;9.60;3.60;;;;;;;;;;5001727;28;20425;-47
2021/08/30 02:51:08;;;;;;;11.77;3.65;;;;;;;;;;4994839;28;20133;-47
2021/08/30 02:53:35;;;;;;;10.55;3.55;;;;;;;;;;5003378;28;20022;-47
2021/08/30 02:56:00;;;;;;;7.82;3.17;;;;;;;;;;4996577;28;20486;-48
2021/08/30 02:58:27;;;;;;;7.60;3.85;;;;;;;;;;4999866;28;20275;-48
2021/08/30 03:00:53;;;;;;;5.50;3.03;;;;;;;;;;5002384;28;20445;-47
2021/08/30 03:03:19;;;;;;;8.88;3.33;;;;;;;;;;4997581;28;20057;-47
2021/08/30 03:05:47;;;;;;;6.43;2.80;;;;;;;;;;5006636;28;20033;-48
2021/08/30 03:08:13;;;;;;;8.50;2.90;;;;;;;;;;5000842;28;20030;-48
2021/08/30 03:10:40;;;;;;;9.95;4.60;;;;;;;;;;5003962;28;20058;-47
2021/08/30 03:13:06;;;;;;;6.72;3.00;;;;;;;;;;4999681;28;20400;-47
2021/08/30 03:15:33;;;;;;;5.65;2.95;;;;;;;;;;4994979;28;20568;-47
2021/08/30 03:18:03;;;;;;;6.93;3.00;;;;;;;;;;5002769;28;20065;-47
2021/08/30 03:20:30;;;;;;;7.85;3.10;;;;;;;;;;4998937;28;20022;-48
2021/08/30 03:22:58;;;;;;;7.53;2.67;;;;;;;;;;5005506;28;20041;-47
2021/08/30 03:25:27;;;;;;;6.63;2.30;;;;;;;;;;5004762;28;20045;-47
2021/08/30 03:27:55;;;;;;;4.28;2.47;;;;;;;;;;5007904;28;20080;-47
2021/08/30 03:30:22;;;;;;;10.50;2.65;;;;;;;;;;4996673;28;20242;-47
2021/08/30 03:32:48;;;;;;;5.03;2.10;;;;;;;;;;4996856;28;20033;-48
2021/08/30 03:35:15;;;;;;;4.72;2.40;;;;;;;;;;5000501;28;20030;-47
2021/08/30 03:37:42;;;;;;;5.22;2.55;;;;;;;;;;4998224;28;20054;-49
2021/08/30 03:40:10;;;;;;;5.93;2.38;;;;;;;;;;4998143;28;20034;-48
2021/08/30 03:42:37;;;;;;;8.50;2.60;;;;;;;;;;5000883;28;20124;-48
2021/08/30 03:45:04;;;;;;;12.07;3.00;;;;;;;;;;5002797;28;20054;-48
2021/08/30 03:47:30;;;;;;;7.82;2.42;;;;;;;;;;4996066;28;20081;-48
2021/08/30 03:49:57;;;;;;;9.82;2.15;;;;;;;;;;4996097;28;20065;-48
2021/08/30 03:52:24;;;;;;;4.90;2.00;;;;;;;;;;5000012;28;20417;-47
2021/08/30 03:54:49;;;;;;;7.35;3.10;;;;;;;;;;4997021;28;20042;-48
2021/08/30 03:57:17;;;;;;;6.75;2.65;;;;;;;;;;4998068;28;20026;-47
2021/08/30 03:59:47;;;;;;;10.10;2.15;;;;;;;;;;5000579;28;20026;-47
2021/08/30 04:02:13;;;;;;;3.63;2.00;;;;;;;;;;4996490;28;20053;-47
2021/08/30 04:04:42;;;;;;;5.13;2.10;;;;;;;;;;4997757;28;20030;-48
2021/08/30 04:07:08;;;;;;;6.03;2.35;;;;;;;;;;5000627;28;20029;-47
2021/08/30 04:09:36;;;;;;;6.57;2.10;;;;;;;;;;4997259;28;20054;-51
2021/08/30 04:12:02;;;;;;;7.53;2.20;;;;;;;;;;5000793;28;20092;-48
2021/08/30 04:14:28;;;;;;;6.53;2.30;;;;;;;;;;4999654;28;20033;-48
2021/08/30 04:16:53;;;;;;;9.50;3.72;;;;;;;;;;4994909;28;20041;-48
2021/08/30 04:19:19;;;;;;;4.05;2.03;;;;;;;;;;4994718;28;20121;-47
2021/08/30 04:21:44;;;;;;;6.53;2.30;;;;;;;;;;4995400;28;20033;-50
2021/08/30 04:24:10;;;;;;;4.97;2.40;;;;;;;;;;4997998;28;20111;-48
2021/08/30 04:26:36;;;;;;;8.85;2.42;;;;;;;;;;4998428;28;20038;-47
2021/08/30 04:29:01;;;;;;;5.18;2.10;;;;;;;;;;4997404;28;20603;-48
2021/08/30 04:31:27;;;;;;;9.32;2.88;;;;;;;;;;5000028;28;20089;-48
2021/08/30 04:33:52;;;;;;;3.28;2.17;;;;;;;;;;5000519;28;20113;-48
2021/08/30 04:36:18;;;;;;;7.63;2.30;;;;;;;;;;4992456;28;20044;-47
2021/08/30 04:38:43;;;;;;;5.63;2.30;;;;;;;;;;4999683;28;20038;-48
2021/08/30 04:41:11;;;;;;;3.95;2.22;;;;;;;;;;4987120;28;20105;-47
2021/08/30 04:43:37;;;;;;;7.85;2.55;;;;;;;;;;4997072;28;20462;-48
2021/08/30 04:46:02;;;;;;;4.70;2.55;;;;;;;;;;4995363;28;20065;-48
2021/08/30 04:48:28;;;;;;;5.75;2.22;;;;;;;;;;4989838;28;20041;-47
2021/08/30 04:50:53;;;;;;;4.68;2.33;;;;;;;;;;4998854;28;20031;-48
2021/08/30 04:53:19;;;;;;;6.97;2.60;;;;;;;;;;4998660;28;20042;-47
2021/08/30 04:55:44;;;;;;;5.88;2.55;;;;;;;;;;4997882;28;20031;-49
2021/08/30 04:58:11;;;;;;;5.80;2.35;;;;;;;;;;4998483;28;20030;-47
2021/08/30 05:00:37;;;;;;;7.30;2.15;;;;;;;;;;4999806;28;20041;-48
2021/08/30 05:03:03;;;;;;;4.47;2.13;;;;;;;;;;5003737;28;20296;-48
2021/08/30 05:05:29;;;;;;;9.10;2.60;;;;;;;;;;5002138;28;20270;-47
2021/08/30 05:07:54;;;;;;;7.90;3.03;;;;;;;;;;5006407;28;20042;-47
2021/08/30 05:10:20;;;;;;;5.28;2.45;;;;;;;;;;5002044;28;20405;-47
2021/08/30 05:12:45;;;;;;;4.78;2.28;;;;;;;;;;4997390;28;20095;-47
2021/08/30 05:15:11;;;;;;;6.53;2.13;;;;;;;;;;4999393;28;20029;-47
2021/08/30 05:17:36;;;;;;;8.93;2.33;;;;;;;;;;4998126;28;20476;-48
2021/08/30 05:20:03;;;;;;;13.02;3.22;;;;;;;;;;5001734;28;20139;-47
2021/08/30 05:22:29;;;;;;;7.68;2.42;;;;;;;;;;5003758;28;20022;-48
2021/08/30 05:24:54;;;;;;;12.98;2.85;;;;;;;;;;4994204;28;20026;-49
2021/08/30 05:27:20;;;;;;;5.70;2.10;;;;;;;;;;4998417;28;20501;-48
2021/08/30 05:29:45;;;;;;;11.82;2.20;;;;;;;;;;5001848;28;20026;-50
2021/08/30 05:32:11;;;;;;;18.35;3.42;;;;;;;;;;4998326;28;20408;-48
2021/08/30 05:34:36;;;;;;;13.82;2.78;;;;;;;;;;5001968;28;20121;-47
2021/08/30 05:37:02;;;;;;;11.82;2.60;;;;;;;;;;5002016;28;20046;-47
2021/08/30 05:39:28;;;;;;;6.63;2.20;;;;;;;;;;5005733;28;20030;-48
2021/08/30 05:41:53;;;;;;;7.00;2.40;;;;;;;;;;5002166;28;20030;-47
2021/08/30 05:44:19;;;;;;;7.28;2.33;;;;;;;;;;5002872;28;20038;-47
2021/08/30 05:46:44;;;;;;;4.88;1.95;;;;;;;;;;5002799;28;20400;-47
2021/08/30 05:49:10;;;;;;;14.48;2.63;;;;;;;;;;5006394;28;20108;-49
2021/08/30 05:51:35;;;;;;;10.05;2.10;;;;;;;;;;5002688;28;20430;-47
2021/08/30 05:54:01;;;;;;;8.23;2.30;;;;;;;;;;5007580;28;20037;-49
2021/08/30 05:56:27;;;;;;;16.60;2.55;;;;;;;;;;5003776;28;20101;-48
2021/08/30 05:58:53;;;;;;;9.82;2.15;;;;;;;;;;5006878;28;20030;-49
2021/08/30 06:01:18;;;;;;;6.43;2.15;;;;;;;;;;4996825;28;20037;-49
2021/08/30 06:03:44;;;;;;;5.68;2.30;;;;;;;;;;5003342;28;20540;-49
2021/08/30 06:06:09;;;;;;;9.50;2.35;;;;;;;;;;5002858;28;20033;-47
2021/08/30 06:08:35;;;;;;;9.18;2.88;;;;;;;;;;5001474;28;20060;-49
2021/08/30 06:11:00;;;;;;;5.05;1.95;;;;;;;;;;5004807;28;20038;-49
2021/08/30 06:13:26;;;;;;;7.10;2.08;;;;;;;;;;5004874;28;20405;-48
2021/08/30 06:15:52;;;;;;;8.65;2.38;;;;;;;;;;5009269;28;20033;-49
2021/08/30 06:18:18;;;;;;;9.95;2.25;;;;;;;;;;5001425;28;20038;-49
2021/08/30 06:20:44;;;;;;;11.55;2.42;;;;;;;;;;5004226;28;20033;-47
2021/08/30 06:23:09;;;;;;;8.90;2.30;;;;;;;;;;5003677;28;20061;-49
2021/08/30 06:25:35;;;;;;;9.90;2.80;;;;;;;;;;5004919;28;20096;-48
2021/08/30 06:28:01;;;;;;;8.05;2.17;;;;;;;;;;5001949;28;20087;-47
2021/08/30 06:30:26;;;;;;;10.35;2.85;;;;;;;;;;5002052;28;20034;-48
2021/08/30 06:32:52;;;;;;;9.60;2.40;;;;;;;;;;5004158;28;20183;-48
2021/08/30 06:35:18;;;;;;;8.43;2.33;;;;;;;;;;5008941;28;20400;-48
2021/08/30 06:37:44;;;;;;;7.85;2.15;;;;;;;;;;5002941;28;20050;-47
2021/08/30 06:40:10;;;;;;;12.00;2.20;;;;;;;;;;5006225;28;20033;-47
2021/08/30 06:42:36;;;;;;;6.72;1.80;;;;;;;;;;5009065;28;20033;-47
2021/08/30 06:45:03;;;;;;;7.60;2.05;;;;;;;;;;5008232;28;20078;-48
2021/08/30 06:47:29;;;;;;;6.95;1.70;;;;;;;;;;5000465;28;20030;-48
2021/08/30 06:49:55;;;;;;;10.00;1.80;;;;;;;;;;5004721;28;20057;-48
2021/08/30 06:52:20;;;;;;;8.48;2.15;;;;;;;;;;5006723;28;20026;-48
2021/08/30 06:54:46;;;;;;;5.30;1.65;;;;;;;;;;5008005;28;20053;-48
2021/08/30 06:57:12;;;;;;;4.93;1.38;;;;;;;;;;5001467;28;20076;-47
2021/08/30 06:59:37;;;;;;;6.32;1.92;;;;;;;;;;5004728;28;20030;-47
2021/08/30 07:02:03;;;;;;;4.40;1.63;;;;;;;;;;5005590;28;20037;-47
2021/08/30 07:04:28;;;;;;;4.80;2.13;;;;;;;;;;5003274;28;20461;-48
2021/08/30 07:06:54;;;;;;;8.43;1.90;;;;;;;;;;4997927;28;20072;-49
2021/08/30 07:09:19;;;;;;;9.52;1.83;;;;;;;;;;5003154;28;20025;-48
2021/08/30 07:11:46;;;;;;;7.07;1.50;;;;;;;;;;5008492;28;20032;-48
2021/08/30 07:14:12;;;;;;;4.22;1.40;;;;;;;;;;5004619;28;20043;-47
2021/08/30 07:16:37;;;;;;;5.38;1.50;;;;;;;;;;4999653;28;20421;-47
2021/08/30 07:19:03;;;;;;;5.15;1.60;;;;;;;;;;4997567;28;20038;-48
2021/08/30 07:21:29;;;;;;;4.30;1.30;;;;;;;;;;5004081;28;20311;-48
2021/08/30 07:23:55;;;;;;;7.78;1.75;;;;;;;;;;5003070;28;20112;-47
2021/08/30 07:26:21;;;;;;;8.13;1.70;;;;;;;;;;5001150;28;20682;-47
2021/08/30 07:28:47;;;;;;;5.45;1.50;;;;;;;;;;4995027;28;20065;-48
2021/08/30 07:31:14;;;;;;;7.53;1.60;;;;;;;;;;4996170;28;20057;-48
2021/08/30 07:33:40;;;;;;;4.28;1.45;;;;;;;;;;4996180;28;20499;-50
2021/08/30 07:36:06;;;;;;;5.55;1.10;;;;;;;;;;5000808;28;20030;-48
2021/08/30 07:38:31;;;;;;;8.05;1.50;;;;;;;;;;5006310;28;20041;-49
2021/08/30 07:40:57;;;;;;;2.60;1.45;;;;;;;;;;5000018;28;20055;-47
2021/08/30 07:43:23;;;;;;;3.88;1.30;;;;;;;;;;5004355;28;20065;-48
2021/08/30 07:45:48;;;;;;;4.78;1.27;;;;;;;;;;4984990;28;20042;-49
2021/08/30 07:48:14;;;;;;;3.40;1.25;;;;;;;;;;5001733;28;20037;-48
2021/08/30 07:50:40;;;;;;;6.70;1.50;;;;;;;;;;5003828;28;20318;-48
2021/08/30 07:53:05;;;;;;;3.42;1.35;;;;;;;;;;5002217;28;20033;-48
2021/08/30 07:55:35;;;;;;;4.32;1.20;;;;;;;;;;5005146;28;20125;-49
2021/08/30 07:58:01;;;;;;;2.95;1.10;;;;;;;;;;5002555;28;20500;-48
2021/08/30 08:00:26;;;;;;;1.85;1.00;;;;;;;;;;5005760;28;20041;-48
2021/08/30 08:02:52;;;;;;;4.00;1.40;;;;;;;;;;5002405;28;20049;-50
2021/08/30 08:05:18;;;;;;;13.68;1.60;;;;;;;;;;5004295;28;20485;-49
2021/08/30 08:07:44;;;;;;;2.70;1.55;;;;;;;;;;5002333;28;20030;-48
2021/08/30 08:10:10;;;;;;;3.42;1.52;;;;;;;;;;5002341;28;22264;-49
2021/08/30 08:12:35;;;;;;;5.63;1.27;;;;;;;;;;4998585;28;20033;-48
2021/08/30 08:15:01;;;;;;;3.67;1.10;;;;;;;;;;5000488;28;20126;-49
2021/08/30 08:17:26;;;;;;;6.50;1.17;;;;;;;;;;4995727;28;20036;-49
2021/08/30 08:19:52;;;;;;;5.03;1.42;;;;;;;;;;5000351;28;20556;-48
2021/08/30 08:22:18;;;;;;;5.40;1.17;;;;;;;;;;4999722;28;20430;-49
2021/08/30 08:24:43;;;;;;;2.15;1.33;;;;;;;;;;4998749;28;20436;-49
2021/08/30 08:27:09;;;;;;;4.53;1.40;;;;;;;;;;5002329;28;20543;-47
2021/08/30 08:29:34;;;;;;;2.95;1.35;;;;;;;;;;5000826;28;20033;-48
2021/08/30 08:32:00;;;;;;;5.65;1.23;;;;;;;;;;5001406;28;20489;-50
2021/08/30 08:34:25;;;;;;;4.72;1.70;;;;;;;;;;5001449;28;20046;-48
2021/08/30 08:36:54;;;;;;;6.38;1.65;;;;;;;;;;5005069;28;20359;-50
2021/08/30 08:39:20;;;;;;;4.68;2.03;;;;;;;;;;4993931;28;20069;-48
2021/08/30 08:41:45;;;;;;;6.20;1.63;;;;;;;;;;4997168;28;20459;-52
2021/08/30 08:44:11;;;;;;;5.70;1.65;;;;;;;;;;5002555;28;20563;-47
2021/08/30 08:46:38;;;;;;;3.53;1.70;;;;;;;;;;5004845;28;20034;-47
2021/08/30 08:49:04;;;;;;;3.33;1.45;;;;;;;;;;5004476;28;20493;-47
2021/08/30 08:51:30;;;;;;;2.38;1.65;;;;;;;;;;5007645;28;20033;-48
2021/08/30 08:53:55;;;;;;;3.78;1.60;;;;;;;;;;5007198;28;20029;-47
2021/08/30 08:56:26;;;;;;;2.70;1.77;;;;;;;;;;5005074;28;20052;-46
2021/08/30 08:58:52;;;;;;;5.50;1.50;;;;;;;;;;5001865;28;20065;-47
2021/08/30 09:01:26;;;;;;;3.13;1.38;;;;;;;;;;5007471;28;20111;-49
2021/08/30 09:03:55;;;;;;;2.92;1.50;;;;;;;;;;5007654;28;20030;-47
2021/08/30 09:06:27;;;;;;;3.55;1.48;;;;;;;;;;5002529;28;20353;-47
2021/08/30 09:09:07;;;;;;;2.92;1.55;;;;;;;;;;5005198;28;20052;-47
2021/08/30 09:11:44;;;;;;;4.22;1.48;;;;;;;;;;5000157;28;20034;-47
2021/08/30 09:14:17;;;;;;;3.95;1.52;;;;;;;;;;5005511;28;20037;-48
2021/08/30 09:16:44;;;;;;;4.13;1.30;;;;;;;;;;5006282;28;20026;-47
2021/08/30 09:19:12;;;;;;;4.50;1.30;;;;;;;;;;5002445;28;20493;-47
2021/08/30 09:21:43;;;;;;;4.10;1.58;;;;;;;;;;5005644;28;20034;-47
2021/08/30 09:24:13;;;;;;;3.20;1.23;;;;;;;;;;5006702;28;20114;-50
2021/08/30 09:26:46;;;;;;;2.95;1.30;;;;;;;;;;5003727;28;20029;-47
2021/08/30 09:29:39;;;;;;;2.67;1.27;;;;;;;;;;5002402;28;20072;-48
2021/08/30 09:32:19;;;;;;;3.60;1.27;;;;;;;;;;5005643;28;20030;-50
2021/08/30 09:34:47;;;;;;;6.10;1.23;;;;;;;;;;5007181;28;20030;-47
2021/08/30 09:37:16;;;;;;;2.58;1.40;;;;;;;;;;5006582;28;20217;-48
2021/08/30 09:39:51;;;;;;;3.03;1.40;;;;;;;;;;5003805;28;20096;-48
2021/08/30 09:42:20;;;;;;;4.75;1.60;;;;;;;;;;5006849;28;20049;-47
2021/08/30 09:44:46;;;;;;;3.67;1.42;;;;;;;;;;5007532;28;20489;-48
2021/08/30 09:47:14;;;;;;;4.13;1.30;;;;;;;;;;5007797;28;20052;-48
2021/08/30 09:49:41;;;;;;;2.47;1.33;;;;;;;;;;5009210;28;20038;-47
2021/08/30 09:52:07;;;;;;;2.97;1.20;;;;;;;;;;5009541;28;20030;-48
2021/08/30 09:54:33;;;;;;;3.78;1.10;;;;;;;;;;5010121;28;20040;-48
2021/08/30 09:57:01;;;;;;;5.60;1.20;;;;;;;;;;5008874;28;20038;-47
2021/08/30 09:59:27;;;;;;;2.42;1.00;;;;;;;;;;5010290;28;20034;-51
2021/08/30 10:01:54;;;;;;;4.20;1.00;;;;;;;;;;5010417;28;20109;-49
2021/08/30 10:04:21;;;;;;;3.30;1.05;;;;;;;;;;5004673;28;20037;-48
2021/08/30 10:06:51;;;;;;;6.78;1.25;;;;;;;;;;5007879;28;20025;-48
2021/08/30 10:09:18;;;;;;;7.15;1.70;;;;;;;;;;5009793;28;20357;-49
2021/08/30 10:11:45;;;;;;;2.58;1.05;;;;;;;;;;5008561;28;20108;-47
2021/08/30 10:14:16;;;;;;;3.20;1.15;;;;;;;;;;5005423;28;20112;-48
2021/08/30 10:16:42;;;;;;;11.95;1.55;;;;;;;;;;5008123;28;20416;-48
2021/08/30 10:19:08;;;;;;;2.47;1.30;;;;;;;;;;5008150;28;20575;-49
2021/08/30 10:21:46;;;;;;;5.68;1.20;;;;;;;;;;5008332;28;20069;-50
2021/08/30 10:24:13;;;;;;;3.88;1.25;;;;;;;;;;5009376;28;20028;-49
2021/08/30 10:26:41;;;;;;;13.70;1.48;;;;;;;;;;5008286;28;20481;-51
2021/08/30 10:29:08;;;;;;;5.65;2.17;;;;;;;;;;5006576;28;20028;-48
2021/08/30 10:31:33;;;;;;;4.55;1.20;;;;;;;;;;5009641;28;20038;-47
2021/08/30 10:33:59;;;;;;;2.78;1.13;;;;;;;;;;5008156;28;20046;-51
2021/08/30 10:36:29;;;;;;;3.35;1.50;;;;;;;;;;5009033;28;20054;-49
2021/08/30 10:39:13;;;;;;;2.42;1.15;;;;;;;;;;5000753;28;20038;-49
2021/08/30 10:41:42;;;;;;;3.63;1.27;;;;;;;;;;5001833;28;20087;-48
2021/08/30 10:44:21;;;;;;;5.63;1.20;;;;;;;;;;5002774;28;20037;-52
2021/08/30 10:46:55;;;;;;;6.55;1.30;;;;;;;;;;4994820;28;20048;-49
2021/08/30 10:49:26;;;;;;;5.80;1.10;;;;;;;;;;5006904;28;20033;-47
2021/08/30 10:52:03;;;;;;;4.67;1.23;;;;;;;;;;5005451;28;20489;-48
2021/08/30 10:54:28;;;;;;;6.90;1.67;;;;;;;;;;5007168;28;20104;-48
2021/08/30 10:56:56;;;;;;;4.93;1.02;;;;;;;;;;5008440;28;20472;-48
2021/08/30 10:59:24;;;;;;;6.88;1.70;;;;;;;;;;5006838;28;20022;-48
2021/08/30 11:01:55;;;;;;;7.00;1.35;;;;;;;;;;5005016;28;20121;-49
2021/08/30 11:04:38;;;;;;;5.22;1.30;;;;;;;;;;5006154;28;20056;-52
2021/08/30 11:07:07;;;;;;;6.70;1.38;;;;;;;;;;5007427;28;20026;-49
2021/08/30 11:09:33;;;;;;;4.40;1.20;;;;;;;;;;5000523;28;20052;-50
2021/08/30 11:12:13;;;;;;;2.80;1.10;;;;;;;;;;5002742;28;20029;-49
2021/08/30 11:14:40;;;;;;;7.97;1.15;;;;;;;;;;5007509;28;20030;-49
2021/08/30 11:17:09;;;;;;;3.60;1.30;;;;;;;;;;5005032;28;20026;-48
2021/08/30 11:19:35;;;;;;;4.63;1.10;;;;;;;;;;5008135;28;20061;-48
2021/08/30 11:22:01;;;;;;;4.53;1.40;;;;;;;;;;5005548;28;20065;-48
2021/08/30 11:24:36;;;;;;;2.85;1.20;;;;;;;;;;4999956;28;20455;-48
2021/08/30 11:27:09;;;;;;;23.52;2.83;;;;;;;;;;5001122;28;20022;-48
2021/08/30 11:29:42;;;;;;;3.80;1.58;;;;;;;;;;5001467;28;20026;-47
2021/08/30 11:32:09;;;;;;;4.80;1.30;;;;;;;;;;5002941;28;20045;-47
2021/08/30 11:34:37;;;;;;;8.07;1.58;;;;;;;;;;5005142;28;20053;-47
2021/08/30 11:37:04;;;;;;;11.52;1.40;;;;;;;;;;5005642;28;20041;-48
2021/08/30 11:39:33;;;;;;;8.20;1.30;;;;;;;;;;5007786;28;20034;-49
2021/08/30 11:42:05;;;;;;;2.95;1.10;;;;;;;;;;5001014;28;20372;-51
2021/08/30 11:44:33;;;;;;;4.88;1.25;;;;;;;;;;4999225;28;20492;-49
2021/08/30 11:47:01;;;;;;;2.83;1.20;;;;;;;;;;5005384;28;20084;-49
2021/08/30 11:49:32;;;;;;;3.17;1.27;;;;;;;;;;5001230;28;20030;-48
2021/08/30 11:52:00;;;;;;;5.03;1.25;;;;;;;;;;4999414;28;20045;-50
2021/08/30 11:54:33;;;;;;;2.75;1.30;;;;;;;;;;4998641;28;20030;-49
2021/08/30 11:57:05;;;;;;;5.80;1.20;;;;;;;;;;5002952;28;20029;-48
2021/08/30 11:59:34;;;;;;;3.40;1.00;;;;;;;;;;4999841;28;20022;-48
2021/08/30 12:02:00;;;;;;;3.70;0.82;;;;;;;;;;5000495;28;20509;-48
2021/08/30 12:04:30;;;;;;;4.97;1.40;;;;;;;;;;5002332;28;20379;-48
2021/08/30 12:07:00;;;;;;;3.95;1.33;;;;;;;;;;5003359;28;20034;-49
2021/08/30 12:09:37;;;;;;;3.03;1.20;;;;;;;;;;5002685;28;20026;-49
2021/08/30 12:12:10;;;;;;;4.82;1.17;;;;;;;;;;4996909;28;20036;-50
2021/08/30 12:14:35;;;;;;;6.50;1.40;;;;;;;;;;5003529;28;20025;-48
2021/08/30 12:17:01;;;;;;;10.35;1.42;;;;;;;;;;5002444;28;20120;-50
2021/08/30 12:19:27;;;;;;;5.65;1.38;;;;;;;;;;5000685;28;20394;-49
2021/08/30 12:21:54;;;;;;;3.47;1.13;;;;;;;;;;5002624;28;20037;-51
2021/08/30 12:24:21;;;;;;;7.85;1.40;;;;;;;;;;5005068;28;20562;-50
2021/08/30 12:26:49;;;;;;;2.47;1.13;;;;;;;;;;5002568;28;20037;-48
2021/08/30 12:29:17;;;;;;;3.58;1.15;;;;;;;;;;4999761;28;20488;-49
2021/08/30 12:31:49;;;;;;;3.63;1.42;;;;;;;;;;5005363;28;20045;-48
2021/08/30 12:34:14;;;;;;;6.38;1.45;;;;;;;;;;5003467;28;20114;-48
2021/08/30 12:36:42;;;;;;;6.70;1.95;;;;;;;;;;4997951;28;20062;-49
2021/08/30 12:39:08;;;;;;;4.28;1.20;;;;;;;;;;5004645;28;20042;-49
2021/08/30 12:41:34;;;;;;;5.95;1.20;;;;;;;;;;5004030;28;20034;-48
2021/08/30 12:44:00;;;;;;;3.60;1.40;;;;;;;;;;5000250;28;20045;-49
2021/08/30 12:46:26;;;;;;;12.43;1.42;;;;;;;;;;5002515;28;20266;-48
2021/08/30 12:48:52;;;;;;;7.13;1.52;;;;;;;;;;5004196;28;20058;-49
2021/08/30 12:51:18;;;;;;;4.13;1.10;;;;;;;;;;5005004;28;20058;-48
2021/08/30 12:53:44;;;;;;;6.13;1.45;;;;;;;;;;5006013;28;20033;-48
2021/08/30 12:56:09;;;;;;;2.45;1.05;;;;;;;;;;5001785;28;20030;-51
2021/08/30 12:58:35;;;;;;;4.15;1.27;;;;;;;;;;5001588;28;20026;-49
2021/08/30 13:01:01;;;;;;;5.80;1.83;;;;;;;;;;5000845;28;20029;-51
2021/08/30 13:03:27;;;;;;;5.18;1.40;;;;;;;;;;5000535;28;20026;-49
2021/08/30 13:05:52;;;;;;;4.22;1.40;;;;;;;;;;5002751;28;20484;-49
2021/08/30 13:08:18;;;;;;;3.10;1.35;;;;;;;;;;4996819;28;20037;-49
2021/08/30 13:10:46;;;;;;;2.97;1.15;;;;;;;;;;5004811;28;20033;-49
2021/08/30 13:13:14;;;;;;;4.43;1.40;;;;;;;;;;5003817;28;20030;-48
2021/08/30 13:15:43;;;;;;;2.95;1.25;;;;;;;;;;5006631;28;20118;-51
2021/08/30 13:18:09;;;;;;;3.05;1.10;;;;;;;;;;5004508;28;20026;-49
2021/08/30 13:20:42;;;;;;;6.13;2.03;;;;;;;;;;5007656;28;20040;-49
2021/08/30 13:23:12;;;;;;;3.10;1.20;;;;;;;;;;5009737;28;20037;-49
2021/08/30 13:25:38;;;;;;;9.27;1.27;;;;;;;;;;5010181;28;20040;-49
2021/08/30 13:28:04;;;;;;;5.00;1.88;;;;;;;;;;5006572;28;20022;-48
2021/08/30 13:30:30;;;;;;;5.68;1.15;;;;;;;;;;5008294;28;20022;-50
2021/08/30 13:32:56;;;;;;;4.10;1.40;;;;;;;;;;5009839;28;20033;-49
2021/08/30 13:35:22;;;;;;;8.52;1.25;;;;;;;;;;5009825;28;20022;-50
2021/08/30 13:37:49;;;;;;;5.30;1.27;;;;;;;;;;5009587;28;20141;-48
2021/08/30 13:40:16;;;;;;;4.68;1.08;;;;;;;;;;5007627;28;20037;-51
2021/08/30 13:42:43;;;;;;;5.10;0.88;;;;;;;;;;5005737;28;20030;-48
2021/08/30 13:45:10;;;;;;;6.65;1.23;;;;;;;;;;5004116;28;20037;-48
2021/08/30 13:47:36;;;;;;;4.32;1.05;;;;;;;;;;5010053;28;20145;-48
2021/08/30 13:50:03;;;;;;;2.08;1.00;;;;;;;;;;5005674;28;20513;-49
2021/08/30 13:52:29;;;;;;;9.55;1.33;;;;;;;;;;5007927;28;20025;-48
2021/08/30 13:54:55;;;;;;;2.92;1.15;;;;;;;;;;5005157;28;20033;-50
2021/08/30 13:57:21;;;;;;;7.18;1.60;;;;;;;;;;5009300;28;20038;-48
2021/08/30 13:59:47;;;;;;;6.75;1.58;;;;;;;;;;5005014;28;20480;-48
2021/08/30 14:02:13;;;;;;;8.23;1.80;;;;;;;;;;4996539;28;20041;-49
2021/08/30 14:04:39;;;;;;;4.18;1.33;;;;;;;;;;5003803;28;20127;-49
2021/08/30 14:07:04;;;;;;;9.15;1.58;;;;;;;;;;5001438;28;20088;-48
2021/08/30 14:09:30;;;;;;;3.95;1.30;;;;;;;;;;4999376;28;20400;-48
2021/08/30 14:11:57;;;;;;;3.92;1.50;;;;;;;;;;5000124;28;20172;-47
2021/08/30 14:14:24;;;;;;;5.88;1.45;;;;;;;;;;5000947;28;20489;-47
2021/08/30 14:16:49;;;;;;;3.42;1.15;;;;;;;;;;5000391;28;20060;-47
2021/08/30 14:19:15;;;;;;;3.97;1.55;;;;;;;;;;5000076;28;20515;-48
2021/08/30 14:21:41;;;;;;;3.88;1.10;;;;;;;;;;4999091;28;20026;-47
2021/08/30 14:24:06;;;;;;;2.42;1.20;;;;;;;;;;5004135;28;20033;-48
2021/08/30 14:26:32;;;;;;;3.78;1.33;;;;;;;;;;5005138;28;20038;-48
2021/08/30 14:28:58;;;;;;;1.77;1.08;;;;;;;;;;4996515;28;20045;-50
2021/08/30 14:31:25;;;;;;;3.88;1.20;;;;;;;;;;4995748;28;20488;-48
2021/08/30 14:33:53;;;;;;;2.60;1.15;;;;;;;;;;4999306;28;20092;-48
2021/08/30 14:36:19;;;;;;;3.05;1.30;;;;;;;;;;5003206;28;20390;-50
2021/08/30 14:38:44;;;;;;;7.05;1.20;;;;;;;;;;5004977;28;20096;-48
2021/08/30 14:41:10;;;;;;;3.53;1.10;;;;;;;;;;4997889;28;20041;-48
2021/08/30 14:43:35;;;;;;;4.05;1.00;;;;;;;;;;4998972;28;20101;-51
2021/08/30 14:46:01;;;;;;;3.85;1.40;;;;;;;;;;5003992;28;20065;-48